createdAt,value
2023-08-14T00:00:36.182Z,100986.97
2023-08-14T00:05:38.060Z,100984.88
2023-08-14T00:10:40.055Z,100985.97
2023-08-14T00:15:41.989Z,100976.06
2023-08-14T00:20:45.576Z,100976.22
2023-08-14T00:25:47.534Z,100972.66
2023-08-14T00:30:49.549Z,100964.47
2023-08-14T00:35:51.712Z,100962.53
2023-08-14T00:40:54.394Z,100957.41
2023-08-14T00:45:57.495Z,100967.91
2023-08-14T00:51:00.123Z,100967.16
2023-08-14T00:56:04.005Z,100960.81
2023-08-14T01:01:07.404Z,100960.81
2023-08-14T01:06:09.428Z,100950.19
2023-08-14T01:11:20.866Z,100953.97
2023-08-14T01:16:28.769Z,100949.34
2023-08-14T01:21:59.761Z,100943.06
2023-08-14T01:27:02.456Z,100944.06
2023-08-14T01:32:04.506Z,100927.09
2023-08-14T01:37:24.605Z,100913.88
2023-08-14T01:42:33.943Z,100917.81
2023-08-14T01:47:36.167Z,100910.22
2023-08-14T01:52:38.116Z,100910.97
2023-08-14T01:57:40.168Z,100907.28
2023-08-14T02:02:42.188Z,100912.81
2023-08-14T02:07:44.308Z,100896.28
2023-08-14T02:12:46.280Z,100895.69
2023-08-14T02:17:48.265Z,100898.00
2023-08-14T02:22:50.332Z,100890.41
2023-08-14T02:27:52.383Z,100892.38
2023-08-14T02:32:54.394Z,100883.56
2023-08-14T02:37:56.419Z,100882.34
2023-08-14T02:43:00.637Z,100892.25
2023-08-14T02:48:02.745Z,100896.66
2023-08-14T02:53:04.863Z,100895.94
2023-08-14T02:58:06.875Z,100889.44
2023-08-14T03:03:08.941Z,100889.31
2023-08-14T03:08:10.941Z,100882.50
2023-08-14T03:13:12.931Z,100879.44
2023-08-14T03:18:14.848Z,100872.06
2023-08-14T03:23:16.982Z,100880.03
2023-08-14T03:28:18.851Z,100872.47
2023-08-14T03:33:20.833Z,100879.81
2023-08-14T03:38:22.931Z,100871.34
2023-08-14T03:43:24.855Z,100875.50
2023-08-14T03:48:26.771Z,100871.97
2023-08-14T03:53:28.735Z,100875.50
2023-08-14T03:58:30.632Z,100869.28
2023-08-14T04:03:32.680Z,100873.91
2023-08-14T04:08:34.818Z,100873.91
2023-08-14T04:13:36.788Z,100868.66
2023-08-14T04:18:38.657Z,100853.63
2023-08-14T04:23:40.572Z,100850.56
2023-08-14T04:28:42.673Z,100842.50
2023-08-14T04:33:44.646Z,100839.09
2023-08-14T04:38:46.569Z,100844.34
2023-08-14T04:43:48.517Z,100843.88
2023-08-14T04:48:50.501Z,100839.22
2023-08-14T04:53:52.803Z,100836.56
2023-08-14T04:58:55.096Z,100822.38
2023-08-14T05:03:57.115Z,100825.66
2023-08-14T05:09:00.460Z,100817.84
2023-08-14T05:14:04.243Z,100823.34
2023-08-14T05:19:06.213Z,100817.13
2023-08-14T05:24:08.286Z,100823.44
2023-08-14T05:29:10.553Z,100844.00
2023-08-14T05:34:12.581Z,100827.88
2023-08-14T05:39:19.802Z,100823.22
2023-08-14T05:44:21.912Z,100830.78
2023-08-14T05:49:23.945Z,100826.03
2023-08-14T05:54:26.019Z,100826.13
2023-08-14T05:59:27.886Z,100839.34
2023-08-14T06:04:29.870Z,100854.75
2023-08-14T06:09:31.789Z,100861.59
2023-08-14T06:14:33.663Z,100868.19
2023-08-14T06:19:35.514Z,100860.75
2023-08-14T06:24:37.351Z,100851.78
2023-08-14T06:29:39.509Z,100860.84
2023-08-14T06:34:41.706Z,100854.13
2023-08-14T06:39:43.862Z,100843.72
2023-08-14T06:44:46.074Z,100834.72
2023-08-14T06:49:47.953Z,100824.19
2023-08-14T06:54:49.973Z,100833.47
2023-08-14T06:59:51.975Z,100818.59
2023-08-14T07:04:53.894Z,100832.50
2023-08-14T07:09:56.510Z,100818.34
2023-08-14T07:14:58.471Z,100834.22
2023-08-14T07:20:00.295Z,100825.75
2023-08-14T07:25:02.208Z,100821.88
2023-08-14T07:30:06.782Z,100818.31
2023-08-14T07:35:08.816Z,100824.31
2023-08-14T07:40:11.469Z,100837.38
2023-08-14T07:45:13.273Z,100836.38
2023-08-14T07:50:15.413Z,100853.50
2023-08-14T07:55:17.503Z,100865.13
2023-08-14T08:00:21.555Z,100860.00
2023-08-14T08:05:23.557Z,100847.75
2023-08-14T08:10:25.489Z,100848.38
2023-08-14T08:15:27.596Z,100847.38
2023-08-14T08:20:29.598Z,100840.66
2023-08-14T08:25:31.998Z,100847.25
2023-08-14T08:30:33.933Z,100841.88
2023-08-14T08:35:35.846Z,100839.06
2023-08-14T08:40:37.997Z,100828.06
2023-08-14T08:45:45.217Z,100828.06
2023-08-14T08:50:47.442Z,100833.47
2023-08-14T08:55:50.285Z,100821.97
2023-08-14T09:00:53.583Z,100811.34
2023-08-14T09:05:55.651Z,100826.63
2023-08-14T09:10:57.640Z,100829.53
2023-08-14T09:16:01.017Z,100837.38
2023-08-14T09:21:03.922Z,100845.06
2023-08-14T09:26:06.062Z,100832.22
2023-08-14T09:31:09.517Z,100823.31
2023-08-14T09:36:13.216Z,100817.78
2023-08-14T09:41:15.107Z,100811.22
2023-08-14T09:46:19.777Z,100809.00
2023-08-14T09:51:21.948Z,100799.84
2023-08-14T09:56:24.924Z,100799.84
2023-08-14T10:01:27.966Z,100801.81
2023-08-14T10:06:29.995Z,100795.44
2023-08-14T10:11:34.150Z,100792.28
2023-08-14T10:16:39.677Z,100794.59
2023-08-14T10:21:44.835Z,100784.56
2023-08-14T10:26:47.803Z,100782.59
2023-08-14T10:31:50.081Z,100779.19
2023-08-14T10:36:55.092Z,100780.41
2023-08-14T10:42:00.980Z,100777.22
2023-08-14T10:47:13.052Z,100780.06
2023-08-14T10:52:16.669Z,100761.47
2023-08-14T10:57:19.548Z,100756.44
2023-08-14T11:02:21.592Z,100772.06
2023-08-14T11:07:27.872Z,100772.22
2023-08-14T11:12:29.772Z,100769.41
2023-08-14T11:17:31.743Z,100765.22
2023-08-14T11:22:33.713Z,100759.28
2023-08-14T11:27:35.653Z,100761.09
2023-08-14T11:32:37.808Z,100756.44
2023-08-14T11:37:39.845Z,100755.34
2023-08-14T11:42:41.979Z,100754.47
2023-08-14T11:47:51.764Z,100738.22
2023-08-14T11:52:54.910Z,100730.66
2023-08-14T11:58:00.666Z,100738.34
2023-08-14T12:03:02.706Z,100733.69
2023-08-14T12:08:05.203Z,100722.56
2023-08-14T12:13:07.479Z,100715.81
2023-08-14T12:18:14.452Z,100717.06
2023-08-14T12:23:17.498Z,100708.25
2023-08-14T12:28:20.380Z,100703.72
2023-08-14T12:33:22.319Z,100687.78
2023-08-14T12:38:24.332Z,100689.47
2023-08-14T12:43:36.484Z,100668.44
2023-08-14T12:48:41.098Z,100654.84
2023-08-14T12:53:43.194Z,100644.19
2023-08-14T12:58:48.540Z,100624.25
2023-08-14T13:03:51.324Z,100624.78
2023-08-14T13:08:53.190Z,100615.19
2023-08-14T13:13:55.277Z,100599.41
2023-08-14T13:18:57.234Z,100599.66
2023-08-14T13:23:59.161Z,100597.22
2023-08-14T13:29:01.185Z,100586.72
2023-08-14T13:34:03.428Z,100582.69
2023-08-14T13:39:07.051Z,100571.78
2023-08-14T13:44:09.029Z,100571.91
2023-08-14T13:49:11.352Z,100573.06
2023-08-14T13:54:13.398Z,100567.22
2023-08-14T13:59:15.454Z,100568.00
2023-08-14T14:04:17.326Z,100553.78
2023-08-14T14:09:19.232Z,100554.03
2023-08-14T14:14:21.117Z,100549.78
2023-08-14T14:19:23.102Z,100560.81
2023-08-14T14:24:26.034Z,100559.09
2023-08-14T14:29:31.061Z,100568.47
2023-08-14T14:34:33.223Z,100573.16
2023-08-14T14:39:35.323Z,100570.56
2023-08-14T14:44:37.444Z,100574.47
2023-08-14T14:49:39.289Z,100577.53
2023-08-14T14:54:41.158Z,100580.94
2023-08-14T14:59:43.592Z,100577.00
2023-08-14T15:04:46.900Z,100574.31
2023-08-14T15:09:48.743Z,100567.47
2023-08-14T15:14:50.624Z,100570.75
2023-08-14T15:19:52.625Z,100564.53
2023-08-14T15:25:00.816Z,100572.63
2023-08-14T15:30:03.429Z,100567.47
2023-08-14T15:35:05.691Z,100571.16
2023-08-14T15:40:08.182Z,100581.09
2023-08-14T15:45:12.716Z,100574.72
2023-08-14T15:50:16.307Z,100566.22
2023-08-14T15:55:18.178Z,100573.03
2023-08-14T16:00:20.361Z,100564.78
2023-08-14T16:05:22.216Z,100573.88
2023-08-14T16:10:24.228Z,100574.72
2023-08-14T16:15:26.021Z,100569.06
2023-08-14T16:20:27.959Z,100574.47
2023-08-14T16:25:29.887Z,100567.47
2023-08-14T16:30:34.002Z,100567.09
2023-08-14T16:35:36.051Z,100562.25
2023-08-14T16:40:43.688Z,100568.91
2023-08-14T16:45:49.513Z,100572.03
2023-08-14T16:50:52.223Z,100575.19
2023-08-14T16:55:54.110Z,100573.59
2023-08-14T17:00:55.975Z,100569.31
2023-08-14T17:06:05.715Z,100565.38
2023-08-14T17:11:07.709Z,100564.53
2023-08-14T17:16:12.774Z,100561.97
2023-08-14T17:21:15.035Z,100568.38
2023-08-14T17:26:17.043Z,100565.97
2023-08-14T17:31:18.998Z,100569.38
2023-08-14T17:36:21.071Z,100562.56
2023-08-14T17:41:22.943Z,100567.41
2023-08-14T17:46:24.907Z,100576.63
2023-08-14T17:51:27.031Z,100573.78
2023-08-14T17:56:29.015Z,100568.25
2023-08-14T18:01:33.655Z,100564.56
2023-08-14T18:06:36.058Z,100559.34
2023-08-14T18:11:38.012Z,100557.78
2023-08-14T18:16:40.396Z,100557.78
2023-08-14T18:21:42.301Z,100570.63
2023-08-14T18:26:44.153Z,100579.31
2023-08-14T18:31:46.503Z,100584.09
2023-08-14T18:36:51.798Z,100588.22
2023-08-14T18:41:53.832Z,100589.06
2023-08-14T18:46:55.868Z,100592.06
2023-08-14T18:51:57.780Z,100601.91
2023-08-14T18:56:59.840Z,100605.66
2023-08-14T19:02:01.934Z,100607.78
2023-08-14T19:07:03.716Z,100618.56
2023-08-14T19:12:07.330Z,100629.31
2023-08-14T19:17:09.301Z,100622.50
2023-08-14T19:22:16.998Z,100629.56
2023-08-14T19:27:19.152Z,100624.19
2023-08-14T19:32:21.389Z,100643.03
2023-08-14T19:37:23.926Z,100655.50
2023-08-14T19:42:26.308Z,100667.63
2023-08-14T19:47:29.825Z,100660.16
2023-08-14T19:52:31.787Z,100658.31
2023-08-14T19:57:33.813Z,100661.84
2023-08-14T20:02:35.683Z,100663.59
2023-08-14T20:07:37.637Z,100668.81
2023-08-14T20:12:39.605Z,100660.16
2023-08-14T20:17:41.576Z,100649.94
2023-08-14T20:22:43.576Z,100649.94
2023-08-14T20:27:45.491Z,100654.84
2023-08-14T20:32:47.551Z,100652.63
2023-08-14T20:37:49.704Z,100643.53
2023-08-14T20:42:51.720Z,100654.91
2023-08-14T20:47:53.583Z,100654.31
2023-08-14T20:52:55.660Z,100664.31
2023-08-14T20:57:57.655Z,100668.69
2023-08-14T21:02:59.685Z,100669.69
2023-08-14T21:08:01.752Z,100668.97
2023-08-14T21:13:04.217Z,100683.38
2023-08-14T21:18:09.014Z,100670.53
2023-08-14T21:23:13.244Z,100679.56
2023-08-14T21:28:15.849Z,100672.22
2023-08-14T21:33:17.799Z,100668.97
2023-08-14T21:38:19.737Z,100672.19
2023-08-14T21:43:21.775Z,100668.75
2023-08-14T21:48:23.718Z,100665.06
2023-08-14T21:53:25.732Z,100666.06
2023-08-14T21:58:27.556Z,100660.69
2023-08-14T22:03:29.408Z,100653.75
2023-08-14T22:08:31.692Z,100647.63
2023-08-14T22:13:33.828Z,100649.19
2023-08-14T22:18:35.916Z,100652.63
2023-08-14T22:23:37.904Z,100654.59
2023-08-14T22:28:40.770Z,100652.88
2023-08-14T22:33:46.220Z,100655.72
2023-08-14T22:38:48.336Z,100656.56
2023-08-14T22:43:50.276Z,100650.44
2023-08-14T22:48:52.200Z,100649.31
2023-08-14T22:53:54.551Z,100643.09
2023-08-14T22:58:56.431Z,100636.47
2023-08-14T23:03:59.412Z,100647.25
2023-08-14T23:09:01.356Z,100644.06
2023-08-14T23:14:03.381Z,100647.25
2023-08-14T23:19:05.471Z,100641.84
2023-08-14T23:24:07.456Z,100641.84
2023-08-14T23:29:09.414Z,100643.69
2023-08-14T23:34:11.413Z,100638.44
2023-08-14T23:39:13.525Z,100626.31
2023-08-14T23:44:15.410Z,100626.56
2023-08-14T23:49:17.255Z,100617.75
2023-08-14T23:54:19.260Z,100612.56
2023-08-14T23:59:21.138Z,100615.78
